Terminal Aerodrome Forecast
Issued by NWS

Home | Current Version | Previous Version | Graphics & Text | Print | Product List | Glossary On
Versions: 1 2 3 4 5 6 7 8 9 10 11 12 13 14 15 16 17
079
FTUS43 KMPX 270804 AAA
TAFAXN
TAF AMD
KAXN 270804Z 2708/2806 VRB03KT 6SM -SHRA BKN050 OVC070
     FM271200 02005KT P6SM VCSH BKN018
     FM271600 01008KT P6SM BKN040
     FM271900 02008KT P6SM SCT040=

USA.gov is the U.S. government's official web portal to all federal, state and local government web resources and services.